Time;durP1;ratioP1;P1;durP2;ratioP2;P2;SDS_P1;SDS_P2;PMS_P1;PMS_P2;Temp;Humidity;BMP_temperature;BMP_pressure;BME280_temperature;BME280_humidity;BME280_pressure;Samples;Min_cycle;Max_cycle;Signal;HPM_P1;HPM_P2
2021/09/20 05:45:27;;;;;;;19.60;1.95;;;;;;;;;;1063332;27;99408;-43
2021/09/20 05:45:58;;;;;;;1.85;0.80;;;;;;;;;;1056471;27;100425;-44
2021/09/20 05:46:30;;;;;;;3.60;1.10;;;;;;;;;;1058029;27;99857;-44
2021/09/20 05:47:01;;;;;;;5.50;1.23;;;;;;;;;;1052152;27;100723;-45
2021/09/20 05:47:32;;;;;;;5.57;1.27;;;;;;;;;;1053182;27;100084;-45
2021/09/20 05:48:04;;;;;;;5.15;1.35;;;;;;;;;;1051365;27;100907;-45
2021/09/20 05:48:35;;;;;;;4.13;1.33;;;;;;;;;;1053693;27;99906;-45
2021/09/20 05:49:06;;;;;;;5.68;1.17;;;;;;;;;;1056769;27;100769;-44
2021/09/20 05:49:38;;;;;;;9.23;1.42;;;;;;;;;;1057765;27;100095;-45
2021/09/20 05:50:09;;;;;;;5.05;0.90;;;;;;;;;;1056289;27;100877;-47
2021/09/20 05:50:41;;;;;;;4.65;1.40;;;;;;;;;;1057845;27;99920;-47
2021/09/20 05:51:12;;;;;;;4.68;1.20;;;;;;;;;;1056589;27;100441;-44
2021/09/20 05:51:43;;;;;;;3.78;1.08;;;;;;;;;;1058092;27;99323;-44
2021/09/20 05:52:15;;;;;;;6.45;1.38;;;;;;;;;;1056545;27;100551;-45
2021/09/20 05:52:47;;;;;;;4.72;1.33;;;;;;;;;;1058071;27;99865;-44
2021/09/20 05:53:18;;;;;;;5.65;1.20;;;;;;;;;;1047443;27;100427;-46
2021/09/20 05:53:49;;;;;;;4.00;1.40;;;;;;;;;;1049328;27;100139;-45
2021/09/20 05:54:20;;;;;;;3.17;0.90;;;;;;;;;;1047551;27;100506;-44
2021/09/20 05:54:51;;;;;;;5.13;1.17;;;;;;;;;;1049911;27;100068;-47
2021/09/20 05:55:23;;;;;;;3.80;1.33;;;;;;;;;;1047262;27;100647;-45
2021/09/20 05:55:54;;;;;;;3.60;1.10;;;;;;;;;;1049043;27;99896;-44
2021/09/20 05:56:25;;;;;;;7.65;1.20;;;;;;;;;;1047225;27;100381;-46
2021/09/20 05:56:56;;;;;;;4.88;1.10;;;;;;;;;;1045473;27;99908;-44
2021/09/20 05:57:27;;;;;;;3.97;1.00;;;;;;;;;;1051958;27;100586;-44
2021/09/20 05:57:58;;;;;;;7.22;1.50;;;;;;;;;;1049300;27;100116;-44
2021/09/20 05:58:30;;;;;;;5.50;1.13;;;;;;;;;;1047843;27;100531;-44
2021/09/20 05:59:01;;;;;;;7.20;1.25;;;;;;;;;;1048932;27;100106;-46
2021/09/20 05:59:32;;;;;;;3.40;0.85;;;;;;;;;;1047770;27;100905;-44
2021/09/20 06:00:04;;;;;;;4.90;1.40;;;;;;;;;;1053552;27;99911;-47
2021/09/20 06:00:43;;;;;;;4.13;1.10;;;;;;;;;;1048917;27;100859;-44
2021/09/20 06:01:14;;;;;;;3.42;1.02;;;;;;;;;;1053146;27;99905;-43
2021/09/20 06:01:45;;;;;;;4.13;1.13;;;;;;;;;;1052011;27;100652;-45
2021/09/20 06:02:17;;;;;;;2.92;0.98;;;;;;;;;;1050658;27;100029;-45
2021/09/20 06:02:48;;;;;;;3.55;1.13;;;;;;;;;;1047496;27;100841;-46
2021/09/20 06:03:20;;;;;;;6.55;1.00;;;;;;;;;;1048685;27;99976;-46
2021/09/20 06:03:51;;;;;;;5.35;1.08;;;;;;;;;;1048276;27;100528;-47
2021/09/20 06:04:24;;;;;;;6.05;0.93;;;;;;;;;;1053852;27;99875;-45
2021/09/20 06:04:55;;;;;;;4.72;1.35;;;;;;;;;;1056083;27;100796;-49
2021/09/20 06:05:28;;;;;;;7.95;1.60;;;;;;;;;;1057911;27;100112;-48
2021/09/20 06:06:00;;;;;;;8.20;1.25;;;;;;;;;;1056228;27;100385;-48
2021/09/20 06:06:31;;;;;;;4.65;1.23;;;;;;;;;;1057977;27;99921;-45
2021/09/20 06:07:02;;;;;;;5.18;1.30;;;;;;;;;;1056166;27;100798;-46
2021/09/20 06:07:33;;;;;;;8.70;1.30;;;;;;;;;;1057932;27;99992;-50
2021/09/20 06:08:06;;;;;;;4.20;1.25;;;;;;;;;;1056474;27;100477;-47
2021/09/20 06:08:37;;;;;;;4.28;1.33;;;;;;;;;;1057429;27;100205;-46
2021/09/20 06:09:08;;;;;;;3.28;1.10;;;;;;;;;;1051712;27;101537;-45
2021/09/20 06:09:39;;;;;;;4.60;1.02;;;;;;;;;;1053298;27;99903;-45
2021/09/20 06:10:11;;;;;;;8.07;1.50;;;;;;;;;;1051770;27;100451;-46
2021/09/20 06:10:43;;;;;;;4.50;1.15;;;;;;;;;;1053781;27;99898;-48
2021/09/20 06:11:15;;;;;;;4.28;1.17;;;;;;;;;;1056527;27;100466;-48
2021/09/20 06:11:46;;;;;;;5.75;1.17;;;;;;;;;;1053039;27;100048;-45
2021/09/20 06:12:19;;;;;;;4.07;0.95;;;;;;;;;;1051889;27;100536;-47
2021/09/20 06:12:50;;;;;;;4.88;1.10;;;;;;;;;;1048747;27;100069;-45
2021/09/20 06:13:21;;;;;;;7.45;1.08;;;;;;;;;;1048189;27;100418;-45
2021/09/20 06:13:52;;;;;;;8.63;1.30;;;;;;;;;;1053227;27;99930;-47
2021/09/20 06:14:23;;;;;;;5.68;1.42;;;;;;;;;;1047743;27;100555;-45
2021/09/20 06:14:55;;;;;;;4.60;1.40;;;;;;;;;;1052842;27;99945;-43
2021/09/20 06:15:26;;;;;;;4.97;1.40;;;;;;;;;;1051699;27;100508;-46
2021/09/20 06:15:57;;;;;;;5.15;1.08;;;;;;;;;;1053354;27;100075;-44
2021/09/20 06:16:28;;;;;;;4.50;1.20;;;;;;;;;;1056327;27;100417;-44
2021/09/20 06:16:59;;;;;;;5.38;0.95;;;;;;;;;;1053124;27;99907;-47
2021/09/20 06:17:31;;;;;;;10.93;1.30;;;;;;;;;;1047463;27;100780;-44
2021/09/20 06:18:04;;;;;;;4.95;1.00;;;;;;;;;;1044526;27;99929;-44
2021/09/20 06:18:36;;;;;;;3.33;1.10;;;;;;;;;;1043774;27;100816;-44
2021/09/20 06:19:07;;;;;;;3.03;1.23;;;;;;;;;;1049273;27;101058;-50
2021/09/20 06:19:38;;;;;;;4.60;1.27;;;;;;;;;;1052594;27;100633;-48
2021/09/20 06:20:11;;;;;;;7.70;1.27;;;;;;;;;;1057649;27;100241;-48
2021/09/20 06:20:42;;;;;;;5.18;1.08;;;;;;;;;;1051628;27;100995;-49
2021/09/20 06:21:13;;;;;;;5.47;1.00;;;;;;;;;;1052846;27;100066;-45
2021/09/20 06:21:44;;;;;;;5.10;1.35;;;;;;;;;;1051975;27;100415;-46
2021/09/20 06:22:15;;;;;;;3.58;0.95;;;;;;;;;;1053497;27;100110;-46
2021/09/20 06:22:48;;;;;;;3.25;1.05;;;;;;;;;;1056281;27;100483;-45
2021/09/20 06:23:19;;;;;;;7.63;1.67;;;;;;;;;;1057774;27;99961;-45
2021/09/20 06:23:50;;;;;;;27.20;2.53;;;;;;;;;;1051829;27;100287;-45
2021/09/20 06:24:21;;;;;;;19.35;2.47;;;;;;;;;;1049056;27;100019;-46
2021/09/20 06:24:54;;;;;;;22.50;2.05;;;;;;;;;;1047664;27;100524;-46
2021/09/20 06:25:26;;;;;;;24.75;2.53;;;;;;;;;;1045037;27;99978;-44
2021/09/20 06:25:57;;;;;;;34.05;2.42;;;;;;;;;;1048386;27;100418;-47
2021/09/20 06:26:28;;;;;;;17.88;2.20;;;;;;;;;;1053350;27;99998;-48
2021/09/20 06:26:59;;;;;;;18.83;2.05;;;;;;;;;;1052410;27;100850;-49
2021/09/20 06:27:31;;;;;;;22.83;1.63;;;;;;;;;;1057704;27;99900;-47
2021/09/20 06:28:03;;;;;;;13.52;2.10;;;;;;;;;;1051943;27;100441;-47
2021/09/20 06:28:35;;;;;;;11.07;1.70;;;;;;;;;;1053312;27;100021;-46
2021/09/20 06:29:06;;;;;;;23.98;2.28;;;;;;;;;;1047583;27;101041;-51
2021/09/20 06:29:37;;;;;;;20.85;2.85;;;;;;;;;;1049480;27;100129;-45
2021/09/20 06:30:11;;;;;;;9.52;1.65;;;;;;;;;;1051835;27;100785;-47
2021/09/20 06:30:42;;;;;;;20.38;2.45;;;;;;;;;;1050978;27;100374;-59
2021/09/20 06:31:13;;;;;;;9.90;2.03;;;;;;;;;;1049017;27;100465;-59
2021/09/20 06:31:44;;;;;;;13.23;2.45;;;;;;;;;;1049943;27;100240;-59
2021/09/20 06:32:16;;;;;;;5.53;1.50;;;;;;;;;;1049117;27;100759;-59
2021/09/20 06:32:47;;;;;;;14.45;1.90;;;;;;;;;;1051238;27;100253;-58
2021/09/20 06:33:18;;;;;;;10.10;2.17;;;;;;;;;;1051896;27;100263;-58
2021/09/20 06:33:49;;;;;;;13.35;1.48;;;;;;;;;;1051187;27;99883;-58
2021/09/20 06:34:21;;;;;;;10.43;1.30;;;;;;;;;;1051898;27;100451;-58
2021/09/20 06:34:52;;;;;;;11.95;2.20;;;;;;;;;;1053390;27;100089;-58
2021/09/20 06:35:23;;;;;;;13.10;1.73;;;;;;;;;;1052190;27;100443;-58
2021/09/20 06:35:55;;;;;;;12.50;1.80;;;;;;;;;;1053259;27;100134;-58
2021/09/20 06:36:26;;;;;;;6.85;1.65;;;;;;;;;;1052264;27;100439;-58
2021/09/20 06:36:59;;;;;;;11.90;1.80;;;;;;;;;;1053615;27;100045;-58
2021/09/20 06:37:30;;;;;;;8.35;1.83;;;;;;;;;;1052227;27;100197;-58
2021/09/20 06:38:02;;;;;;;8.18;1.55;;;;;;;;;;1053070;27;99862;-58
2021/09/20 06:38:33;;;;;;;9.88;2.22;;;;;;;;;;1051950;27;100635;-57
2021/09/20 06:39:05;;;;;;;7.00;1.65;;;;;;;;;;1053178;27;100152;-57
2021/09/20 06:39:36;;;;;;;13.00;1.65;;;;;;;;;;1053610;27;100469;-58
2021/09/20 06:40:09;;;;;;;7.28;1.83;;;;;;;;;;1048720;27;100127;-57
2021/09/20 06:40:40;;;;;;;13.10;1.80;;;;;;;;;;1051103;27;100738;-58
2021/09/20 06:41:11;;;;;;;7.68;1.35;;;;;;;;;;1053067;27;99879;-57
2021/09/20 06:41:42;;;;;;;10.70;1.92;;;;;;;;;;1048679;27;100562;-57
2021/09/20 06:42:13;;;;;;;11.23;1.70;;;;;;;;;;1053027;27;101362;-58
2021/09/20 06:42:45;;;;;;;17.30;2.00;;;;;;;;;;1051930;27;100467;-57
2021/09/20 06:43:16;;;;;;;8.65;1.65;;;;;;;;;;1053271;27;99833;-58
2021/09/20 06:43:47;;;;;;;8.40;1.90;;;;;;;;;;1051739;27;100782;-57
2021/09/20 06:44:18;;;;;;;8.30;1.52;;;;;;;;;;1052910;27;99890;-56
2021/09/20 06:44:50;;;;;;;13.98;2.00;;;;;;;;;;1051699;27;100363;-58
2021/09/20 06:45:22;;;;;;;8.10;1.83;;;;;;;;;;1049278;27;100129;-58
2021/09/20 06:45:53;;;;;;;15.00;1.77;;;;;;;;;;1047355;27;100481;-58
2021/09/20 06:46:26;;;;;;;8.93;1.70;;;;;;;;;;1051211;27;100270;-58
2021/09/20 06:46:57;;;;;;;13.93;1.80;;;;;;;;;;1048701;27;100733;-58
2021/09/20 06:47:28;;;;;;;10.00;1.83;;;;;;;;;;1055830;27;99897;-58
2021/09/20 06:48:01;;;;;;;10.00;1.58;;;;;;;;;;1054407;27;100393;-58
2021/09/20 06:48:32;;;;;;;6.88;1.35;;;;;;;;;;1053031;27;100320;-58
2021/09/20 06:49:04;;;;;;;5.18;1.55;;;;;;;;;;1051791;27;100783;-58
2021/09/20 06:49:36;;;;;;;5.35;1.45;;;;;;;;;;1053156;27;99814;-58
2021/09/20 06:50:08;;;;;;;8.70;1.77;;;;;;;;;;1051983;27;100197;-58
2021/09/20 06:50:40;;;;;;;8.82;1.30;;;;;;;;;;1053011;27;100008;-57
2021/09/20 06:51:11;;;;;;;8.55;1.58;;;;;;;;;;1051766;27;100427;-58
2021/09/20 06:51:43;;;;;;;7.25;2.03;;;;;;;;;;1053241;27;99886;-58
2021/09/20 06:52:14;;;;;;;8.77;1.90;;;;;;;;;;1051959;27;100276;-58
2021/09/20 06:52:46;;;;;;;7.07;1.80;;;;;;;;;;1055712;27;100017;-58
2021/09/20 06:53:17;;;;;;;6.90;1.70;;;;;;;;;;1056018;27;100479;-58
2021/09/20 06:53:49;;;;;;;9.15;1.80;;;;;;;;;;1057548;27;99958;-58
2021/09/20 06:54:21;;;;;;;8.10;1.52;;;;;;;;;;1056187;27;100457;-57
2021/09/20 06:54:52;;;;;;;8.30;1.77;;;;;;;;;;1056694;27;100495;-58
2021/09/20 06:55:23;;;;;;;9.32;2.20;;;;;;;;;;1055506;27;100449;-57
2021/09/20 06:55:54;;;;;;;7.45;1.75;;;;;;;;;;1056569;27;100042;-57
2021/09/20 06:56:25;;;;;;;7.30;1.50;;;;;;;;;;1055911;27;100470;-57
2021/09/20 06:56:56;;;;;;;9.27;1.80;;;;;;;;;;1053507;27;99942;-57
2021/09/20 06:57:28;;;;;;;8.80;2.10;;;;;;;;;;1053394;27;100521;-57
2021/09/20 06:57:59;;;;;;;10.20;1.63;;;;;;;;;;1049810;27;99888;-57
2021/09/20 06:58:31;;;;;;;7.03;1.70;;;;;;;;;;1048442;27;100661;-57
2021/09/20 06:59:03;;;;;;;6.13;1.80;;;;;;;;;;1049493;27;100149;-57
2021/09/20 06:59:34;;;;;;;8.10;1.55;;;;;;;;;;1049000;27;100404;-57
2021/09/20 07:00:07;;;;;;;6.32;1.88;;;;;;;;;;1045055;27;100115;-58
2021/09/20 07:00:39;;;;;;;12.57;1.92;;;;;;;;;;1044258;27;100832;-57
2021/09/20 07:01:10;;;;;;;12.65;2.00;;;;;;;;;;1045417;27;100064;-57
2021/09/20 07:01:41;;;;;;;12.73;1.60;;;;;;;;;;1046127;27;100415;-57
2021/09/20 07:02:12;;;;;;;4.63;1.67;;;;;;;;;;1054188;27;100119;-57
2021/09/20 07:02:43;;;;;;;6.60;1.50;;;;;;;;;;1053226;27;100292;-57
2021/09/20 07:03:14;;;;;;;6.88;1.52;;;;;;;;;;1049388;27;100019;-57
2021/09/20 07:03:46;;;;;;;7.07;1.73;;;;;;;;;;1048456;27;100403;-57
2021/09/20 07:04:17;;;;;;;7.00;1.80;;;;;;;;;;1049542;27;100233;-57
2021/09/20 07:04:48;;;;;;;8.45;1.77;;;;;;;;;;1048923;27;100480;-58
2021/09/20 07:05:19;;;;;;;9.75;2.28;;;;;;;;;;1049162;27;100711;-57
2021/09/20 07:05:50;;;;;;;11.15;2.00;;;;;;;;;;1048696;27;100896;-57
2021/09/20 07:06:21;;;;;;;9.23;1.83;;;;;;;;;;1049347;27;99537;-57
2021/09/20 07:06:52;;;;;;;7.88;1.55;;;;;;;;;;1048732;27;100495;-57
2021/09/20 07:07:23;;;;;;;7.57;1.58;;;;;;;;;;1053774;27;100152;-58
2021/09/20 07:07:55;;;;;;;12.07;1.80;;;;;;;;;;1052833;27;100371;-58
2021/09/20 07:08:26;;;;;;;10.13;1.75;;;;;;;;;;1053872;27;100180;-57
2021/09/20 07:08:57;;;;;;;7.15;1.90;;;;;;;;;;1053095;27;100899;-57
2021/09/20 07:09:28;;;;;;;6.85;1.73;;;;;;;;;;1053739;27;100072;-57
2021/09/20 07:09:59;;;;;;;8.07;1.70;;;;;;;;;;1052832;27;100732;-58
2021/09/20 07:10:31;;;;;;;8.98;1.88;;;;;;;;;;1049622;27;100144;-58
2021/09/20 07:11:02;;;;;;;8.35;1.50;;;;;;;;;;1048197;27;100357;-57
2021/09/20 07:11:33;;;;;;;7.47;1.83;;;;;;;;;;1049094;27;100007;-58
2021/09/20 07:12:05;;;;;;;8.95;1.73;;;;;;;;;;1048660;27;100422;-58
2021/09/20 07:12:36;;;;;;;7.45;1.63;;;;;;;;;;1053907;27;100551;-57
2021/09/20 07:13:09;;;;;;;9.18;1.77;;;;;;;;;;1053000;27;100945;-57
2021/09/20 07:13:40;;;;;;;5.78;1.55;;;;;;;;;;1054066;27;100093;-58
2021/09/20 07:14:11;;;;;;;10.90;2.30;;;;;;;;;;1052683;27;100641;-58
2021/09/20 07:14:43;;;;;;;8.38;1.92;;;;;;;;;;1053738;27;100102;-57
2021/09/20 07:15:15;;;;;;;8.77;1.70;;;;;;;;;;1053057;27;100837;-57
2021/09/20 07:15:46;;;;;;;7.10;2.03;;;;;;;;;;1054234;27;100071;-57
2021/09/20 07:16:18;;;;;;;10.32;1.52;;;;;;;;;;1052644;27;100219;-58
2021/09/20 07:16:49;;;;;;;10.95;1.65;;;;;;;;;;1054258;27;100565;-57
2021/09/20 07:17:20;;;;;;;9.95;1.58;;;;;;;;;;1052657;27;101369;-57
2021/09/20 07:17:51;;;;;;;7.05;1.55;;;;;;;;;;1054271;27;100093;-57
2021/09/20 07:18:23;;;;;;;11.90;1.77;;;;;;;;;;1053030;27;100416;-57
2021/09/20 07:18:54;;;;;;;9.75;1.80;;;;;;;;;;1054321;27;100041;-57
2021/09/20 07:19:25;;;;;;;6.80;1.65;;;;;;;;;;1052600;27;100601;-57
2021/09/20 07:19:56;;;;;;;8.18;2.08;;;;;;;;;;1053867;27;100034;-57
2021/09/20 07:20:27;;;;;;;7.47;1.60;;;;;;;;;;1052704;27;100489;-56
2021/09/20 07:20:58;;;;;;;8.00;1.67;;;;;;;;;;1054282;27;99992;-57
2021/09/20 07:21:30;;;;;;;4.43;1.42;;;;;;;;;;1053114;27;100522;-57
2021/09/20 07:22:01;;;;;;;7.88;1.50;;;;;;;;;;1054412;27;99848;-57
2021/09/20 07:22:32;;;;;;;8.45;1.52;;;;;;;;;;1053341;27;100829;-57
2021/09/20 07:23:04;;;;;;;9.13;1.88;;;;;;;;;;1054343;27;99267;-56
2021/09/20 07:23:35;;;;;;;7.65;1.70;;;;;;;;;;1053027;27;101894;-57
2021/09/20 07:24:06;;;;;;;5.93;1.60;;;;;;;;;;1054547;27;99852;-57
2021/09/20 07:24:37;;;;;;;9.05;2.17;;;;;;;;;;1053316;27;100564;-57
2021/09/20 07:25:09;;;;;;;10.25;1.50;;;;;;;;;;1054517;27;99940;-56
2021/09/20 07:25:40;;;;;;;9.25;1.65;;;;;;;;;;1053409;27;100575;-57
2021/09/20 07:26:11;;;;;;;8.13;1.40;;;;;;;;;;1054474;27;99918;-56
2021/09/20 07:26:43;;;;;;;8.82;1.42;;;;;;;;;;1053306;27;100428;-57
2021/09/20 07:27:14;;;;;;;10.73;2.10;;;;;;;;;;1049652;27;99892;-57
2021/09/20 07:27:45;;;;;;;7.00;2.00;;;;;;;;;;1048453;27;100395;-57
2021/09/20 07:28:16;;;;;;;5.72;1.42;;;;;;;;;;1049931;27;99733;-56
2021/09/20 07:28:47;;;;;;;9.73;1.80;;;;;;;;;;1044646;27;100446;-57
2021/09/20 07:29:19;;;;;;;10.75;1.60;;;;;;;;;;1049861;27;99968;-57
2021/09/20 07:29:50;;;;;;;8.18;1.73;;;;;;;;;;1048627;27;100594;-57
2021/09/20 07:30:22;;;;;;;7.57;1.27;;;;;;;;;;1046240;27;99839;-56
2021/09/20 07:30:53;;;;;;;8.85;2.00;;;;;;;;;;1048566;27;100376;-56
2021/09/20 07:31:25;;;;;;;9.27;2.17;;;;;;;;;;1050052;27;99880;-57
2021/09/20 07:31:56;;;;;;;8.48;1.95;;;;;;;;;;1049268;27;100769;-57
2021/09/20 07:32:27;;;;;;;6.97;1.60;;;;;;;;;;1054327;27;99340;-57
2021/09/20 07:32:59;;;;;;;12.73;1.80;;;;;;;;;;1048647;27;100459;-57
2021/09/20 07:33:30;;;;;;;5.55;1.63;;;;;;;;;;1050025;27;99882;-57
2021/09/20 07:34:01;;;;;;;10.23;2.35;;;;;;;;;;1048457;27;100429;-57
2021/09/20 07:34:32;;;;;;;6.55;1.77;;;;;;;;;;1050443;27;99964;-57
2021/09/20 07:35:04;;;;;;;7.70;1.55;;;;;;;;;;1053100;27;100445;-57
2021/09/20 07:35:35;;;;;;;7.40;1.88;;;;;;;;;;1054503;27;99852;-57
2021/09/20 07:36:06;;;;;;;10.48;1.83;;;;;;;;;;1053266;27;100814;-57
2021/09/20 07:36:37;;;;;;;6.50;1.73;;;;;;;;;;1054403;27;100019;-57
2021/09/20 07:37:09;;;;;;;7.88;1.77;;;;;;;;;;1052942;27;100941;-57
2021/09/20 07:37:40;;;;;;;7.97;1.63;;;;;;;;;;1054255;27;99899;-57
2021/09/20 07:38:12;;;;;;;8.05;1.52;;;;;;;;;;1053065;27;100850;-57
2021/09/20 07:38:43;;;;;;;6.05;1.77;;;;;;;;;;1054351;27;99894;-57
2021/09/20 07:39:14;;;;;;;7.20;1.80;;;;;;;;;;1052955;27;100739;-57
2021/09/20 07:39:45;;;;;;;8.73;1.80;;;;;;;;;;1054588;27;99951;-57
2021/09/20 07:40:17;;;;;;;7.82;1.80;;;;;;;;;;1053085;27;100751;-57
2021/09/20 07:40:48;;;;;;;5.63;1.75;;;;;;;;;;1054366;27;100042;-57
2021/09/20 07:41:21;;;;;;;7.93;1.92;;;;;;;;;;1048449;27;100967;-57
2021/09/20 07:41:52;;;;;;;5.07;1.30;;;;;;;;;;1050047;27;99267;-57
2021/09/20 07:42:23;;;;;;;10.18;1.90;;;;;;;;;;1048535;27;100815;-57
2021/09/20 07:42:57;;;;;;;8.60;1.85;;;;;;;;;;1050436;27;100046;-57
2021/09/20 07:43:28;;;;;;;10.77;2.00;;;;;;;;;;1053077;27;100517;-57
2021/09/20 07:43:59;;;;;;;8.10;1.70;;;;;;;;;;1054438;27;100028;-57
2021/09/20 07:44:31;;;;;;;9.77;2.05;;;;;;;;;;1048347;27;100443;-57
2021/09/20 07:45:03;;;;;;;14.43;1.75;;;;;;;;;;1045108;27;99917;-57
2021/09/20 07:45:34;;;;;;;7.15;1.73;;;;;;;;;;1044591;27;100535;-57
2021/09/20 07:46:05;;;;;;;6.43;2.15;;;;;;;;;;1045943;27;99941;-57
2021/09/20 07:46:37;;;;;;;8.40;1.80;;;;;;;;;;1049329;27;100898;-57
2021/09/20 07:47:08;;;;;;;11.95;1.90;;;;;;;;;;1054352;27;100104;-57
2021/09/20 07:47:39;;;;;;;9.57;1.75;;;;;;;;;;1053079;27;100710;-57
2021/09/20 07:48:11;;;;;;;10.85;1.83;;;;;;;;;;1049739;27;99965;-57
2021/09/20 07:48:42;;;;;;;10.02;1.73;;;;;;;;;;1048645;27;100766;-57
2021/09/20 07:49:13;;;;;;;9.27;1.70;;;;;;;;;;1049820;27;99904;-57
2021/09/20 07:49:44;;;;;;;13.38;2.10;;;;;;;;;;1049265;27;100563;-57
2021/09/20 07:50:16;;;;;;;8.48;1.50;;;;;;;;;;1054239;27;99869;-56
2021/09/20 07:50:47;;;;;;;10.93;1.77;;;;;;;;;;1052796;27;100367;-56
2021/09/20 07:51:19;;;;;;;7.70;1.45;;;;;;;;;;1054250;27;99888;-56
2021/09/20 07:51:50;;;;;;;7.10;1.83;;;;;;;;;;1053345;27;100510;-56
2021/09/20 07:52:21;;;;;;;6.13;1.42;;;;;;;;;;1054201;27;99968;-56
2021/09/20 07:52:52;;;;;;;5.75;1.23;;;;;;;;;;1053085;27;100718;-56
2021/09/20 07:53:24;;;;;;;6.45;1.60;;;;;;;;;;1054167;27;99857;-56
2021/09/20 07:53:55;;;;;;;5.63;1.35;;;;;;;;;;1053364;27;100441;-57
2021/09/20 07:54:26;;;;;;;13.07;1.48;;;;;;;;;;1049563;27;100811;-57
2021/09/20 07:54:57;;;;;;;5.90;1.20;;;;;;;;;;1048500;27;100490;-57
2021/09/20 07:55:34;;;;;;;9.52;1.67;;;;;;;;;;1049487;27;100140;-57
2021/09/20 07:56:06;;;;;;;8.55;1.58;;;;;;;;;;1049968;27;100466;-57
2021/09/20 07:56:37;;;;;;;7.20;1.60;;;;;;;;;;1054501;27;100116;-57
2021/09/20 07:57:08;;;;;;;8.98;2.10;;;;;;;;;;1052761;27;100498;-57
2021/09/20 07:57:40;;;;;;;6.25;1.50;;;;;;;;;;1054570;27;99982;-57
2021/09/20 07:58:13;;;;;;;8.80;1.35;;;;;;;;;;1053042;27;100772;-58
2021/09/20 07:58:44;;;;;;;6.00;1.65;;;;;;;;;;1054442;27;100267;-57
2021/09/20 07:59:15;;;;;;;6.70;1.38;;;;;;;;;;1052861;27;100364;-57
2021/09/20 07:59:46;;;;;;;6.82;1.60;;;;;;;;;;1054278;27;99958;-57
2021/09/20 08:00:17;;;;;;;8.45;1.48;;;;;;;;;;1053084;27;100196;-58
2021/09/20 08:00:48;;;;;;;8.88;1.70;;;;;;;;;;1054489;27;100009;-57
2021/09/20 08:01:19;;;;;;;7.72;1.85;;;;;;;;;;1053100;27;100904;-57
2021/09/20 08:01:50;;;;;;;7.93;1.77;;;;;;;;;;1054719;27;100053;-57
2021/09/20 08:02:22;;;;;;;7.00;1.55;;;;;;;;;;1053237;27;100475;-57
2021/09/20 08:02:53;;;;;;;8.23;1.70;;;;;;;;;;1054322;27;99848;-57
2021/09/20 08:03:25;;;;;;;7.32;1.63;;;;;;;;;;1052524;27;100875;-57
2021/09/20 08:03:56;;;;;;;6.28;1.58;;;;;;;;;;1054189;27;99867;-57
2021/09/20 08:04:28;;;;;;;9.50;1.70;;;;;;;;;;1052760;27;100997;-58
2021/09/20 08:04:59;;;;;;;6.78;1.38;;;;;;;;;;1054544;27;99886;-57
2021/09/20 08:05:30;;;;;;;4.47;1.25;;;;;;;;;;1052709;27;100590;-57
2021/09/20 08:06:01;;;;;;;9.25;1.52;;;;;;;;;;1054190;27;99970;-58
2021/09/20 08:06:32;;;;;;;6.88;1.77;;;;;;;;;;1048278;27;101076;-57
2021/09/20 08:07:03;;;;;;;8.73;1.60;;;;;;;;;;1049686;27;99916;-57
2021/09/20 08:07:35;;;;;;;5.97;1.40;;;;;;;;;;1048506;27;100215;-57
2021/09/20 08:08:06;;;;;;;7.07;1.63;;;;;;;;;;1049993;27;99901;-57
2021/09/20 08:08:37;;;;;;;7.95;2.17;;;;;;;;;;1052416;27;100424;-57
2021/09/20 08:09:08;;;;;;;6.15;1.30;;;;;;;;;;1053893;27;100085;-57
2021/09/20 08:09:40;;;;;;;5.10;1.40;;;;;;;;;;1053035;27;100411;-57
2021/09/20 08:10:11;;;;;;;4.65;1.50;;;;;;;;;;1049971;27;100095;-57
2021/09/20 08:10:42;;;;;;;9.48;1.33;;;;;;;;;;1048386;27;100473;-57
2021/09/20 08:11:13;;;;;;;7.82;1.30;;;;;;;;;;1049999;27;99922;-57
2021/09/20 08:11:44;;;;;;;5.72;1.48;;;;;;;;;;1048701;27;100464;-57
2021/09/20 08:12:16;;;;;;;6.65;1.38;;;;;;;;;;1050094;27;99837;-57
2021/09/20 08:12:47;;;;;;;8.00;1.42;;;;;;;;;;1048382;27;100784;-57
2021/09/20 08:13:19;;;;;;;6.05;1.73;;;;;;;;;;1049924;27;100244;-57
2021/09/20 08:13:50;;;;;;;7.82;1.80;;;;;;;;;;1049069;27;100529;-58
2021/09/20 08:14:21;;;;;;;9.73;1.80;;;;;;;;;;1054304;27;99837;-57
2021/09/20 08:14:52;;;;;;;8.10;1.83;;;;;;;;;;1048182;27;102570;-58
2021/09/20 08:15:25;;;;;;;6.93;1.38;;;;;;;;;;1049632;27;99940;-57
2021/09/20 08:15:56;;;;;;;5.75;1.40;;;;;;;;;;1048105;27;100786;-57
2021/09/20 08:16:28;;;;;;;7.00;1.85;;;;;;;;;;1050318;27;100098;-57
2021/09/20 08:16:59;;;;;;;4.38;1.27;;;;;;;;;;1053060;27;100467;-57
2021/09/20 08:17:32;;;;;;;5.85;1.30;;;;;;;;;;1054164;27;100069;-58
2021/09/20 08:18:04;;;;;;;6.22;1.70;;;;;;;;;;1052961;27;100576;-57
2021/09/20 08:18:35;;;;;;;9.13;1.88;;;;;;;;;;1049565;27;99946;-57
2021/09/20 08:19:06;;;;;;;7.30;1.52;;;;;;;;;;1048467;27;100450;-58
2021/09/20 08:19:38;;;;;;;7.32;1.52;;;;;;;;;;1049706;27;100043;-57
2021/09/20 08:20:12;;;;;;;4.93;1.45;;;;;;;;;;1048832;27;100552;-57
2021/09/20 08:20:44;;;;;;;7.65;1.33;;;;;;;;;;1049448;27;99995;-57
2021/09/20 08:21:15;;;;;;;7.07;1.80;;;;;;;;;;1048201;27;100482;-57
2021/09/20 08:21:47;;;;;;;8.15;1.55;;;;;;;;;;1045446;27;99934;-57
2021/09/20 08:22:18;;;;;;;5.72;1.67;;;;;;;;;;1044309;27;100438;-57
2021/09/20 08:22:50;;;;;;;10.60;2.00;;;;;;;;;;1049926;27;99924;-57
2021/09/20 08:23:21;;;;;;;7.88;1.70;;;;;;;;;;1048767;27;100569;-57
2021/09/20 08:23:52;;;;;;;6.68;1.48;;;;;;;;;;1054198;27;99890;-57
2021/09/20 08:24:23;;;;;;;9.30;1.75;;;;;;;;;;1052781;27;100520;-57
2021/09/20 08:24:54;;;;;;;3.25;1.20;;;;;;;;;;1054348;27;99937;-57
2021/09/20 08:25:26;;;;;;;7.97;1.80;;;;;;;;;;1052924;27;100621;-57
2021/09/20 08:25:57;;;;;;;4.47;1.50;;;;;;;;;;1054044;27;100231;-57
2021/09/20 08:26:29;;;;;;;6.68;1.40;;;;;;;;;;1052898;27;100488;-57
2021/09/20 08:27:00;;;;;;;4.88;1.35;;;;;;;;;;1054094;27;99837;-57
2021/09/20 08:27:31;;;;;;;6.88;1.40;;;;;;;;;;1053212;27;100606;-57
2021/09/20 08:28:03;;;;;;;5.68;1.60;;;;;;;;;;1054028;27;99918;-57
2021/09/20 08:28:34;;;;;;;5.05;1.20;;;;;;;;;;1048294;27;100761;-57
2021/09/20 08:29:05;;;;;;;7.95;1.45;;;;;;;;;;1049728;27;100002;-58
2021/09/20 08:29:37;;;;;;;6.85;1.67;;;;;;;;;;1048697;27;100466;-57
2021/09/20 08:30:09;;;;;;;4.70;1.48;;;;;;;;;;1050149;27;100044;-57
2021/09/20 08:30:40;;;;;;;8.93;2.17;;;;;;;;;;1052786;27;100440;-57
2021/09/20 08:31:12;;;;;;;7.30;1.15;;;;;;;;;;1054193;27;99950;-57
2021/09/20 08:31:43;;;;;;;5.53;1.48;;;;;;;;;;1052926;27;100432;-57
2021/09/20 08:32:15;;;;;;;5.28;1.40;;;;;;;;;;1054305;27;99991;-58
2021/09/20 08:32:46;;;;;;;4.60;1.55;;;;;;;;;;1052778;27;100679;-58
2021/09/20 08:33:18;;;;;;;6.50;1.60;;;;;;;;;;1054242;27;100051;-58
2021/09/20 08:33:49;;;;;;;6.75;1.65;;;;;;;;;;1052926;27;100998;-56
2021/09/20 08:34:20;;;;;;;4.88;1.17;;;;;;;;;;1049526;27;100044;-58
2021/09/20 08:34:51;;;;;;;8.88;1.95;;;;;;;;;;1043820;27;100496;-58
2021/09/20 08:35:23;;;;;;;9.07;2.05;;;;;;;;;;1045355;27;99763;-58
2021/09/20 08:35:54;;;;;;;7.88;1.80;;;;;;;;;;1044542;27;100441;-57
2021/09/20 08:36:25;;;;;;;8.80;1.60;;;;;;;;;;1050134;27;99861;-58
2021/09/20 08:36:57;;;;;;;8.23;1.70;;;;;;;;;;1052892;27;100531;-58
2021/09/20 08:37:28;;;;;;;8.32;1.38;;;;;;;;;;1049716;27;100066;-58
2021/09/20 08:37:59;;;;;;;9.30;1.90;;;;;;;;;;1048276;27;100398;-58
2021/09/20 08:38:31;;;;;;;6.65;1.60;;;;;;;;;;1049525;27;100057;-56
2021/09/20 08:39:03;;;;;;;6.95;1.25;;;;;;;;;;1048848;27;100431;-56
2021/09/20 08:39:35;;;;;;;7.18;1.70;;;;;;;;;;1049599;27;99864;-57
2021/09/20 08:40:07;;;;;;;6.93;1.85;;;;;;;;;;1048529;27;100513;-57
2021/09/20 08:40:39;;;;;;;10.93;1.33;;;;;;;;;;1044993;27;100069;-57
2021/09/20 08:41:10;;;;;;;9.00;1.40;;;;;;;;;;1044713;27;100484;-57
2021/09/20 08:41:43;;;;;;;7.03;1.58;;;;;;;;;;1049481;27;99910;-57
2021/09/20 08:42:15;;;;;;;8.90;1.60;;;;;;;;;;1049120;27;100559;-57
2021/09/20 08:42:47;;;;;;;5.88;1.33;;;;;;;;;;1053989;27;99865;-57
2021/09/20 08:43:18;;;;;;;7.13;1.63;;;;;;;;;;1048271;27;100422;-57
2021/09/20 08:43:49;;;;;;;12.90;1.80;;;;;;;;;;1049660;27;100031;-57
2021/09/20 08:44:22;;;;;;;10.63;1.92;;;;;;;;;;1048722;27;100538;-57
2021/09/20 08:44:53;;;;;;;11.27;1.95;;;;;;;;;;1045804;27;100008;-57
2021/09/20 08:45:25;;;;;;;8.15;1.80;;;;;;;;;;1048208;27;101508;-57
2021/09/20 08:46:01;;;;;;;5.32;1.60;;;;;;;;;;1049534;27;99963;-57
2021/09/20 08:46:37;;;;;;;8.88;1.60;;;;;;;;;;1049769;27;100213;-57
2021/09/20 08:47:14;;;;;;;8.20;1.55;;;;;;;;;;1054181;27;100019;-57
2021/09/20 08:47:48;;;;;;;10.40;1.90;;;;;;;;;;1053033;27;100503;-58
2021/09/20 08:48:19;;;;;;;9.10;2.05;;;;;;;;;;1054305;27;99906;-57
2021/09/20 08:48:51;;;;;;;11.93;2.08;;;;;;;;;;1053061;27;100536;-57
2021/09/20 08:49:24;;;;;;;10.13;1.70;;;;;;;;;;1053835;27;100164;-57
2021/09/20 08:49:56;;;;;;;9.43;1.60;;;;;;;;;;1053050;27;100176;-57
2021/09/20 08:50:34;;;;;;;8.57;1.75;;;;;;;;;;1049758;27;100176;-57
2021/09/20 08:51:05;;;;;;;6.85;1.63;;;;;;;;;;1048543;27;100500;-57
2021/09/20 08:51:37;;;;;;;5.25;1.35;;;;;;;;;;1049330;27;99825;-57